sensor_id;sensor_type;location;lat;lon;timestamp;pressure;altitude;pressure_sealevel;temperature;humidity
15568;BME280;7885;42.596;23.044;2023-02-10T00:01:56;94554.84;;;-5.19;69.34
15568;BME280;7885;42.596;23.044;2023-02-10T00:04:23;94531.22;;;-5.21;68.51
15568;BME280;7885;42.596;23.044;2023-02-10T00:06:50;94554.94;;;-5.04;65.74
15568;BME280;7885;42.596;23.044;2023-02-10T00:09:16;94459.06;;;-5.65;63.62
15568;BME280;7885;42.596;23.044;2023-02-10T00:11:43;94542.13;;;-5.17;65.19
15568;BME280;7885;42.596;23.044;2023-02-10T00:14:24;94534.41;;;-5.14;67.04
15568;BME280;7885;42.596;23.044;2023-02-10T00:16:51;94528.84;;;-5.17;66.36
15568;BME280;7885;42.596;23.044;2023-02-10T00:19:21;94519.47;;;-5.35;67.24
15568;BME280;7885;42.596;23.044;2023-02-10T00:21:48;94547.44;;;-5.17;65.27
15568;BME280;7885;42.596;23.044;2023-02-10T00:24:15;94542.13;;;-5.17;64.40
15568;BME280;7885;42.596;23.044;2023-02-10T00:26:42;94541.03;;;-5.21;65.89
15568;BME280;7885;42.596;23.044;2023-02-10T00:29:08;94531.94;;;-5.30;67.02
15568;BME280;7885;42.596;23.044;2023-02-10T00:31:35;94527.22;;;-5.23;68.06
15568;BME280;7885;42.596;23.044;2023-02-10T00:34:02;94489.72;;;-5.37;67.19
15568;BME280;7885;42.596;23.044;2023-02-10T00:36:30;94519.81;;;-5.16;68.23
15568;BME280;7885;42.596;23.044;2023-02-10T00:38:57;94509.72;;;-5.19;66.06
15568;BME280;7885;42.596;23.044;2023-02-10T00:41:24;94517.41;;;-5.23;65.37
15568;BME280;7885;42.596;23.044;2023-02-10T00:43:51;94521.09;;;-5.24;65.33
15568;BME280;7885;42.596;23.044;2023-02-10T00:46:19;94518.44;;;-5.29;66.80
15568;BME280;7885;42.596;23.044;2023-02-10T00:48:46;94498.75;;;-5.38;67.04
15568;BME280;7885;42.596;23.044;2023-02-10T00:51:14;94514.47;;;-5.26;67.29
15568;BME280;7885;42.596;23.044;2023-02-10T00:53:42;94517.06;;;-5.36;67.21
15568;BME280;7885;42.596;23.044;2023-02-10T00:56:09;94519.75;;;-5.31;66.36
15568;BME280;7885;42.596;23.044;2023-02-10T00:58:37;94520.81;;;-5.27;65.88
15568;BME280;7885;42.596;23.044;2023-02-10T01:01:04;94502.22;;;-5.32;66.47
15568;BME280;7885;42.596;23.044;2023-02-10T01:03:31;94499.00;;;-5.39;66.72
15568;BME280;7885;42.596;23.044;2023-02-10T01:05:58;94522.19;;;-5.20;66.51
15568;BME280;7885;42.596;23.044;2023-02-10T01:08:25;94519.81;;;-5.16;66.99
15568;BME280;7885;42.596;23.044;2023-02-10T01:10:59;94519.84;;;-5.11;66.83
15568;BME280;7885;42.596;23.044;2023-02-10T01:13:26;94518.25;;;-5.12;66.55
15568;BME280;7885;42.596;23.044;2023-02-10T01:15:53;94514.50;;;-5.16;67.49
15568;BME280;7885;42.596;23.044;2023-02-10T01:18:20;94521.44;;;-5.10;66.09
15568;BME280;7885;42.596;23.044;2023-02-10T01:20:47;94516.41;;;-5.12;65.72
15568;BME280;7885;42.596;23.044;2023-02-10T01:23:13;94506.53;;;-5.21;67.14
15568;BME280;7885;42.596;23.044;2023-02-10T01:25:40;94503.91;;;-5.16;67.65
15568;BME280;7885;42.596;23.044;2023-02-10T01:28:09;94504.41;;;-5.24;66.58
15568;BME280;7885;42.596;23.044;2023-02-10T01:30:37;94503.28;;;-5.33;67.21
15568;BME280;7885;42.596;23.044;2023-02-10T01:33:04;94501.38;;;-5.43;65.49
15568;BME280;7885;42.596;23.044;2023-02-10T01:35:31;94496.78;;;-5.57;65.28
15568;BME280;7885;42.596;23.044;2023-02-10T01:37:58;94503.56;;;-5.77;65.86
15568;BME280;7885;42.596;23.044;2023-02-10T01:40:25;94476.34;;;-6.04;66.87
15568;BME280;7885;42.596;23.044;2023-02-10T01:42:52;94498.38;;;-5.98;65.64
15568;BME280;7885;42.596;23.044;2023-02-10T01:45:24;94496.47;;;-6.03;66.49
15568;BME280;7885;42.596;23.044;2023-02-10T01:47:54;94462.66;;;-6.28;67.67
15568;BME280;7885;42.596;23.044;2023-02-10T01:50:24;94469.81;;;-6.23;69.07
15568;BME280;7885;42.596;23.044;2023-02-10T01:52:53;94471.13;;;-6.26;69.81
15568;BME280;7885;42.596;23.044;2023-02-10T01:55:22;94485.25;;;-6.15;69.67
15568;BME280;7885;42.596;23.044;2023-02-10T01:57:51;94480.19;;;-6.17;67.37
15568;BME280;7885;42.596;23.044;2023-02-10T02:00:22;94490.09;;;-6.07;69.04
15568;BME280;7885;42.596;23.044;2023-02-10T02:02:50;94461.75;;;-6.38;68.34
15568;BME280;7885;42.596;23.044;2023-02-10T02:08:05;94432.91;;;-6.93;67.92
15568;BME280;7885;42.596;23.044;2023-02-10T02:10:52;94481.06;;;-6.70;70.22
15568;BME280;7885;42.596;23.044;2023-02-10T02:13:28;94456.66;;;-6.72;70.03
15568;BME280;7885;42.596;23.044;2023-02-10T02:16:05;94487.94;;;-6.69;71.06
15568;BME280;7885;42.596;23.044;2023-02-10T02:18:40;94481.88;;;-6.69;72.86
15568;BME280;7885;42.596;23.044;2023-02-10T02:24:51;94445.19;;;-6.82;70.90
15568;BME280;7885;42.596;23.044;2023-02-10T02:27:42;94460.19;;;-6.66;66.99
15568;BME280;7885;42.596;23.044;2023-02-10T02:30:26;94461.28;;;-6.62;66.48
15568;BME280;7885;42.596;23.044;2023-02-10T02:33:02;94477.59;;;-6.43;67.65
15568;BME280;7885;42.596;23.044;2023-02-10T02:35:33;94478.16;;;-6.41;68.04
15568;BME280;7885;42.596;23.044;2023-02-10T02:38:03;94462.75;;;-6.44;67.79
15568;BME280;7885;42.596;23.044;2023-02-10T02:40:30;94436.91;;;-6.64;68.56
15568;BME280;7885;42.596;23.044;2023-02-10T02:42:57;94472.84;;;-6.41;67.53
15568;BME280;7885;42.596;23.044;2023-02-10T02:45:27;94475.50;;;-6.41;66.86
15568;BME280;7885;42.596;23.044;2023-02-10T02:48:18;94470.44;;;-6.43;67.87
15568;BME280;7885;42.596;23.044;2023-02-10T02:50:57;94471.03;;;-6.36;66.39
15568;BME280;7885;42.596;23.044;2023-02-10T02:53:31;94467.59;;;-6.36;65.42
15568;BME280;7885;42.596;23.044;2023-02-10T02:56:06;94465.22;;;-6.38;65.08
15568;BME280;7885;42.596;23.044;2023-02-10T02:58:46;94472.28;;;-6.48;64.99
15568;BME280;7885;42.596;23.044;2023-02-10T03:01:19;94463.81;;;-6.45;65.52
15568;BME280;7885;42.596;23.044;2023-02-10T03:03:53;94465.38;;;-6.49;66.63
15568;BME280;7885;42.596;23.044;2023-02-10T03:06:20;94449.63;;;-6.61;66.02
15568;BME280;7885;42.596;23.044;2023-02-10T03:08:47;94411.53;;;-6.87;66.55
15568;BME280;7885;42.596;23.044;2023-02-10T03:11:14;94464.78;;;-6.56;67.73
15568;BME280;7885;42.596;23.044;2023-02-10T03:13:41;94471.91;;;-6.57;67.59
15568;BME280;7885;42.596;23.044;2023-02-10T03:19:30;94473.44;;;-6.61;66.69
15568;BME280;7885;42.596;23.044;2023-02-10T03:21:56;94476.38;;;-6.62;66.69
15568;BME280;7885;42.596;23.044;2023-02-10T03:24:23;94472.03;;;-6.69;66.94
15568;BME280;7885;42.596;23.044;2023-02-10T03:26:50;94461.97;;;-6.72;68.11
15568;BME280;7885;42.596;23.044;2023-02-10T03:29:17;94453.47;;;-6.74;69.42
15568;BME280;7885;42.596;23.044;2023-02-10T03:31:43;94458.81;;;-6.69;68.50
15568;BME280;7885;42.596;23.044;2023-02-10T03:34:10;94455.00;;;-6.83;68.00
15568;BME280;7885;42.596;23.044;2023-02-10T03:36:39;94460.09;;;-6.76;67.23
15568;BME280;7885;42.596;23.044;2023-02-10T03:39:05;94458.19;;;-6.81;67.39
15568;BME280;7885;42.596;23.044;2023-02-10T03:41:32;94451.97;;;-6.91;68.00
15568;BME280;7885;42.596;23.044;2023-02-10T03:43:59;94441.94;;;-6.89;68.88
15568;BME280;7885;42.596;23.044;2023-02-10T03:46:26;94440.16;;;-6.84;69.46
15568;BME280;7885;42.596;23.044;2023-02-10T03:48:53;94432.44;;;-6.85;68.86
15568;BME280;7885;42.596;23.044;2023-02-10T03:51:20;94423.22;;;-6.83;69.26
15568;BME280;7885;42.596;23.044;2023-02-10T03:53:48;94438.69;;;-6.70;68.87
15568;BME280;7885;42.596;23.044;2023-02-10T03:56:14;94440.28;;;-6.69;68.44
15568;BME280;7885;42.596;23.044;2023-02-10T03:58:41;94417.81;;;-6.93;67.61
15568;BME280;7885;42.596;23.044;2023-02-10T04:01:09;94437.53;;;-6.79;67.50
15568;BME280;7885;42.596;23.044;2023-02-10T04:03:36;94408.59;;;-6.90;66.45
15568;BME280;7885;42.596;23.044;2023-02-10T04:06:03;94430.19;;;-6.72;66.70
15568;BME280;7885;42.596;23.044;2023-02-10T04:08:30;94429.09;;;-6.76;66.25
15568;BME280;7885;42.596;23.044;2023-02-10T04:10:58;94432.75;;;-6.82;64.57
15568;BME280;7885;42.596;23.044;2023-02-10T04:13:25;94429.31;;;-6.82;65.45
15568;BME280;7885;42.596;23.044;2023-02-10T04:16:00;94417.34;;;-6.90;66.48
15568;BME280;7885;42.596;23.044;2023-02-10T04:18:27;94427.47;;;-6.82;67.05
15568;BME280;7885;42.596;23.044;2023-02-10T04:20:54;94430.06;;;-6.87;67.26
15568;BME280;7885;42.596;23.044;2023-02-10T04:23:21;94425.81;;;-6.88;67.86
15568;BME280;7885;42.596;23.044;2023-02-10T04:25:48;94435.75;;;-7.00;68.45
15568;BME280;7885;42.596;23.044;2023-02-10T04:28:16;94428.41;;;-6.93;68.55
15568;BME280;7885;42.596;23.044;2023-02-10T04:30:43;94430.06;;;-6.87;67.27
15568;BME280;7885;42.596;23.044;2023-02-10T04:33:09;94430.50;;;-6.95;66.83
15568;BME280;7885;42.596;23.044;2023-02-10T04:35:36;94426.31;;;-6.91;66.71
15568;BME280;7885;42.596;23.044;2023-02-10T04:38:03;94419.63;;;-6.98;65.75
15568;BME280;7885;42.596;23.044;2023-02-10T04:40:30;94430.00;;;-6.92;65.03
15568;BME280;7885;42.596;23.044;2023-02-10T04:42:56;94432.66;;;-6.92;64.46
15568;BME280;7885;42.596;23.044;2023-02-10T04:45:24;94409.94;;;-7.14;64.05
15568;BME280;7885;42.596;23.044;2023-02-10T04:47:51;94439.38;;;-7.06;64.15
15568;BME280;7885;42.596;23.044;2023-02-10T04:50:18;94453.69;;;-7.07;66.10
15568;BME280;7885;42.596;23.044;2023-02-10T04:52:45;94422.69;;;-7.33;67.20
15568;BME280;7885;42.596;23.044;2023-02-10T04:55:11;94457.59;;;-7.09;68.35
15568;BME280;7885;42.596;23.044;2023-02-10T04:57:38;94452.56;;;-7.11;68.23
15568;BME280;7885;42.596;23.044;2023-02-10T05:00:06;94343.59;;;-7.83;67.27
15568;BME280;7885;42.596;23.044;2023-02-10T05:02:34;94442.97;;;-7.17;68.62
15568;BME280;7885;42.596;23.044;2023-02-10T05:05:01;94447.16;;;-7.21;66.54
15568;BME280;7885;42.596;23.044;2023-02-10T05:07:28;94468.13;;;-7.14;64.96
15568;BME280;7885;42.596;23.044;2023-02-10T05:09:54;94459.31;;;-7.20;65.03
15568;BME280;7885;42.596;23.044;2023-02-10T05:12:21;94454.72;;;-7.30;64.62
15568;BME280;7885;42.596;23.044;2023-02-10T05:14:48;94461.66;;;-7.24;64.17
15568;BME280;7885;42.596;23.044;2023-02-10T05:17:14;94419.75;;;-7.58;63.80
15568;BME280;7885;42.596;23.044;2023-02-10T05:19:43;94433.69;;;-7.63;65.53
15568;BME280;7885;42.596;23.044;2023-02-10T05:22:09;94461.41;;;-7.44;65.29
15568;BME280;7885;42.596;23.044;2023-02-10T05:24:36;94486.53;;;-7.25;64.97
15568;BME280;7885;42.596;23.044;2023-02-10T05:27:03;94485.66;;;-7.30;64.64
15568;BME280;7885;42.596;23.044;2023-02-10T05:29:30;94492.00;;;-7.31;65.13
15568;BME280;7885;42.596;23.044;2023-02-10T05:31:56;94490.94;;;-7.30;65.39
15568;BME280;7885;42.596;23.044;2023-02-10T05:34:23;94424.75;;;-7.79;64.84
15568;BME280;7885;42.596;23.044;2023-02-10T05:36:52;94501.03;;;-7.27;64.62
15568;BME280;7885;42.596;23.044;2023-02-10T05:39:19;94494.66;;;-7.31;65.28
15568;BME280;7885;42.596;23.044;2023-02-10T05:41:51;94478.66;;;-7.41;66.80
15568;BME280;7885;42.596;23.044;2023-02-10T05:44:19;94464.25;;;-7.50;66.89
15568;BME280;7885;42.596;23.044;2023-02-10T05:46:46;94489.38;;;-7.31;65.75
15568;BME280;7885;42.596;23.044;2023-02-10T05:49:13;94491.25;;;-7.27;65.03
15568;BME280;7885;42.596;23.044;2023-02-10T05:51:40;94503.06;;;-7.12;65.39
15568;BME280;7885;42.596;23.044;2023-02-10T05:54:08;94422.94;;;-7.56;64.67
15568;BME280;7885;42.596;23.044;2023-02-10T05:56:35;94506.69;;;-6.97;64.55
15568;BME280;7885;42.596;23.044;2023-02-10T05:59:05;94514.19;;;-6.89;64.43
15568;BME280;7885;42.596;23.044;2023-02-10T06:01:32;94512.44;;;-6.78;64.53
15568;BME280;7885;42.596;23.044;2023-02-10T06:04:00;94495.34;;;-6.71;64.78
15568;BME280;7885;42.596;23.044;2023-02-10T06:06:26;94514.63;;;-5.85;64.12
15568;BME280;7885;42.596;23.044;2023-02-10T06:08:53;94507.03;;;-4.62;60.57
15568;BME280;7885;42.596;23.044;2023-02-10T06:11:21;94516.16;;;-4.18;58.78
15568;BME280;7885;42.596;23.044;2023-02-10T06:13:48;94482.34;;;-4.47;58.58
15568;BME280;7885;42.596;23.044;2023-02-10T06:16:15;94531.28;;;-4.23;58.74
15568;BME280;7885;42.596;23.044;2023-02-10T06:18:42;94521.72;;;-4.29;59.45
15568;BME280;7885;42.596;23.044;2023-02-10T06:21:09;94517.47;;;-4.35;60.12
15568;BME280;7885;42.596;23.044;2023-02-10T06:23:36;94447.78;;;-4.73;59.77
15568;BME280;7885;42.596;23.044;2023-02-10T06:26:03;94446.72;;;-4.72;59.27
15568;BME280;7885;42.596;23.044;2023-02-10T06:28:31;94514.28;;;-4.27;59.56
15568;BME280;7885;42.596;23.044;2023-02-10T06:30:58;94535.59;;;-3.97;59.29
15568;BME280;7885;42.596;23.044;2023-02-10T06:33:25;94542.78;;;-3.77;58.88
15568;BME280;7885;42.596;23.044;2023-02-10T06:35:51;94494.38;;;-3.59;58.28
15568;BME280;7885;42.596;23.044;2023-02-10T06:38:18;94537.44;;;-1.60;53.91
15568;BME280;7885;42.596;23.044;2023-02-10T06:40:45;94510.56;;;0.68;47.13
15568;BME280;7885;42.596;23.044;2023-02-10T06:43:12;94529.34;;;2.98;41.57
15568;BME280;7885;42.596;23.044;2023-02-10T06:45:40;94531.75;;;4.78;37.02
15568;BME280;7885;42.596;23.044;2023-02-10T06:48:06;94530.25;;;6.37;34.09
15568;BME280;7885;42.596;23.044;2023-02-10T06:50:33;94484.25;;;7.44;31.03
15568;BME280;7885;42.596;23.044;2023-02-10T06:53:00;94478.88;;;8.69;28.56
15568;BME280;7885;42.596;23.044;2023-02-10T06:55:26;94532.34;;;10.10;26.67
15568;BME280;7885;42.596;23.044;2023-02-10T06:57:53;94518.41;;;10.78;25.01
15568;BME280;7885;42.596;23.044;2023-02-10T07:00:24;94520.56;;;11.88;24.11
15568;BME280;7885;42.596;23.044;2023-02-10T07:02:52;94518.78;;;12.71;22.86
15568;BME280;7885;42.596;23.044;2023-02-10T07:05:19;94511.03;;;13.32;22.47
15568;BME280;7885;42.596;23.044;2023-02-10T07:07:46;94543.19;;;14.12;21.31
15568;BME280;7885;42.596;23.044;2023-02-10T07:10:12;94527.31;;;14.83;20.40
15568;BME280;7885;42.596;23.044;2023-02-10T07:12:39;94535.63;;;15.70;19.75
15568;BME280;7885;42.596;23.044;2023-02-10T07:15:07;94518.88;;;16.45;19.24
15568;BME280;7885;42.596;23.044;2023-02-10T07:17:34;94509.72;;;17.44;18.33
15568;BME280;7885;42.596;23.044;2023-02-10T07:20:03;94517.66;;;18.66;17.33
15568;BME280;7885;42.596;23.044;2023-02-10T07:22:30;94523.16;;;19.51;16.66
15568;BME280;7885;42.596;23.044;2023-02-10T07:24:57;94520.69;;;20.21;15.88
15568;BME280;7885;42.596;23.044;2023-02-10T07:27:24;94485.28;;;20.39;15.50
15568;BME280;7885;42.596;23.044;2023-02-10T07:29:50;94518.88;;;21.34;15.27
15568;BME280;7885;42.596;23.044;2023-02-10T07:32:17;94526.38;;;21.96;14.70
15568;BME280;7885;42.596;23.044;2023-02-10T07:34:44;94522.78;;;22.51;14.30
15568;BME280;7885;42.596;23.044;2023-02-10T07:37:12;94533.25;;;22.80;13.95
15568;BME280;7885;42.596;23.044;2023-02-10T07:39:39;94527.53;;;23.19;13.94
15568;BME280;7885;42.596;23.044;2023-02-10T07:42:06;94481.81;;;23.36;13.69
15568;BME280;7885;42.596;23.044;2023-02-10T07:44:33;94495.00;;;23.48;13.43
15568;BME280;7885;42.596;23.044;2023-02-10T07:46:59;94521.13;;;23.80;13.30
15568;BME280;7885;42.596;23.044;2023-02-10T07:49:26;94521.69;;;23.75;13.15
15568;BME280;7885;42.596;23.044;2023-02-10T07:51:54;94494.25;;;23.89;12.97
15568;BME280;7885;42.596;23.044;2023-02-10T07:54:22;94526.31;;;24.60;12.70
15568;BME280;7885;42.596;23.044;2023-02-10T07:56:49;94505.03;;;24.67;12.54
15568;BME280;7885;42.596;23.044;2023-02-10T07:59:15;94506.16;;;24.94;12.55
15568;BME280;7885;42.596;23.044;2023-02-10T08:01:42;94516.50;;;25.06;12.64
15568;BME280;7885;42.596;23.044;2023-02-10T08:04:10;94527.09;;;24.48;12.22
15568;BME280;7885;42.596;23.044;2023-02-10T08:06:37;94524.63;;;24.38;12.76
15568;BME280;7885;42.596;23.044;2023-02-10T08:09:04;94530.44;;;24.43;12.45
15568;BME280;7885;42.596;23.044;2023-02-10T08:11:33;94491.91;;;23.88;12.48
15568;BME280;7885;42.596;23.044;2023-02-10T08:14:00;94528.94;;;24.13;12.47
15568;BME280;7885;42.596;23.044;2023-02-10T08:16:27;94514.50;;;24.69;12.68
15568;BME280;7885;42.596;23.044;2023-02-10T08:18:54;94514.50;;;24.69;12.55
15568;BME280;7885;42.596;23.044;2023-02-10T08:21:21;94507.69;;;25.08;12.24
15568;BME280;7885;42.596;23.044;2023-02-10T08:23:47;94483.78;;;25.32;11.67
15568;BME280;7885;42.596;23.044;2023-02-10T08:26:20;94512.47;;;25.20;11.86
15568;BME280;7885;42.596;23.044;2023-02-10T08:28:49;94477.38;;;25.79;11.83
15568;BME280;7885;42.596;23.044;2023-02-10T08:31:17;94508.22;;;26.58;11.46
15568;BME280;7885;42.596;23.044;2023-02-10T08:33:43;94518.16;;;26.90;11.29
15568;BME280;7885;42.596;23.044;2023-02-10T08:36:12;94518.44;;;27.32;10.99
15568;BME280;7885;42.596;23.044;2023-02-10T08:38:40;94498.47;;;27.70;10.74
15568;BME280;7885;42.596;23.044;2023-02-10T08:41:07;94512.59;;;27.85;10.71
15568;BME280;7885;42.596;23.044;2023-02-10T08:43:34;94503.28;;;27.60;10.83
15568;BME280;7885;42.596;23.044;2023-02-10T08:46:03;94515.56;;;27.99;10.83
15568;BME280;7885;42.596;23.044;2023-02-10T08:48:30;94520.50;;;28.32;10.60
15568;BME280;7885;42.596;23.044;2023-02-10T08:50:57;94512.41;;;28.34;10.59
15568;BME280;7885;42.596;23.044;2023-02-10T08:53:25;94517.56;;;28.26;10.42
15568;BME280;7885;42.596;23.044;2023-02-10T08:55:56;94440.75;;;27.91;10.34
15568;BME280;7885;42.596;23.044;2023-02-10T08:58:22;94516.59;;;28.38;9.88
15568;BME280;7885;42.596;23.044;2023-02-10T09:00:49;94504.06;;;26.94;10.34
15568;BME280;7885;42.596;23.044;2023-02-10T09:03:17;94506.91;;;27.21;10.47
15568;BME280;7885;42.596;23.044;2023-02-10T09:05:44;94476.22;;;27.48;10.60
15568;BME280;7885;42.596;23.044;2023-02-10T09:08:11;94496.97;;;27.11;10.72
15568;BME280;7885;42.596;23.044;2023-02-10T09:10:39;94457.56;;;26.38;11.03
15568;BME280;7885;42.596;23.044;2023-02-10T09:13:06;94492.94;;;27.12;11.12
15568;BME280;7885;42.596;23.044;2023-02-10T09:15:35;94502.03;;;28.16;10.55
15568;BME280;7885;42.596;23.044;2023-02-10T09:18:02;94513.91;;;28.53;10.38
15568;BME280;7885;42.596;23.044;2023-02-10T09:20:30;94426.44;;;28.07;10.53
15568;BME280;7885;42.596;23.044;2023-02-10T09:22:57;94499.25;;;27.71;9.84
15568;BME280;7885;42.596;23.044;2023-02-10T09:25:24;94493.31;;;28.14;10.84
15568;BME280;7885;42.596;23.044;2023-02-10T09:27:51;94483.34;;;28.04;10.72
15568;BME280;7885;42.596;23.044;2023-02-10T09:30:20;94499.22;;;28.16;10.42
15568;BME280;7885;42.596;23.044;2023-02-10T09:32:46;94493.94;;;28.09;10.72
15568;BME280;7885;42.596;23.044;2023-02-10T09:35:13;94479.50;;;27.47;10.87
15568;BME280;7885;42.596;23.044;2023-02-10T09:37:41;94487.41;;;28.03;10.76
15568;BME280;7885;42.596;23.044;2023-02-10T09:40:11;94471.09;;;27.83;10.68
15568;BME280;7885;42.596;23.044;2023-02-10T09:42:53;94483.63;;;28.24;10.72
15568;BME280;7885;42.596;23.044;2023-02-10T09:45:29;94479.78;;;27.94;10.44
15568;BME280;7885;42.596;23.044;2023-02-10T09:48:00;94479.00;;;27.76;11.12
15568;BME280;7885;42.596;23.044;2023-02-10T09:50:41;94375.38;;;27.52;11.04
15568;BME280;7885;42.596;23.044;2023-02-10T09:53:14;94470.97;;;28.47;10.99
15568;BME280;7885;42.596;23.044;2023-02-10T09:55:46;94477.56;;;28.77;11.03
15568;BME280;7885;42.596;23.044;2023-02-10T09:58:19;94467.97;;;28.59;10.60
15568;BME280;7885;42.596;23.044;2023-02-10T10:00:52;94478.47;;;28.41;11.01
15568;BME280;7885;42.596;23.044;2023-02-10T10:03:26;94466.06;;;28.75;10.81
15568;BME280;7885;42.596;23.044;2023-02-10T10:06:00;94451.81;;;29.20;10.89
15568;BME280;7885;42.596;23.044;2023-02-10T10:08:35;94454.00;;;29.16;10.56
15568;BME280;7885;42.596;23.044;2023-02-10T10:11:13;94442.72;;;29.25;10.47
15568;BME280;7885;42.596;23.044;2023-02-10T10:13:43;94440.63;;;29.11;10.80
15568;BME280;7885;42.596;23.044;2023-02-10T10:16:19;94422.38;;;28.92;10.72
15568;BME280;7885;42.596;23.044;2023-02-10T10:18:56;94433.00;;;29.12;10.72
15568;BME280;7885;42.596;23.044;2023-02-10T10:21:29;94435.97;;;28.84;10.76
15568;BME280;7885;42.596;23.044;2023-02-10T10:24:13;94436.44;;;28.83;11.01
15568;BME280;7885;42.596;23.044;2023-02-10T10:30:09;94430.63;;;27.93;10.74
15568;BME280;7885;42.596;23.044;2023-02-10T10:32:43;94374.22;;;27.95;10.53
15568;BME280;7885;42.596;23.044;2023-02-10T10:35:14;94406.22;;;28.03;11.16
15568;BME280;7885;42.596;23.044;2023-02-10T10:37:42;94422.25;;;28.12;11.43
15568;BME280;7885;42.596;23.044;2023-02-10T10:40:15;94426.72;;;28.18;11.02
15568;BME280;7885;42.596;23.044;2023-02-10T10:42:44;94416.53;;;27.79;11.21
15568;BME280;7885;42.596;23.044;2023-02-10T10:45:16;94423.66;;;27.98;10.81
15568;BME280;7885;42.596;23.044;2023-02-10T10:47:46;94411.59;;;27.46;11.19
15568;BME280;7885;42.596;23.044;2023-02-10T10:50:16;94379.34;;;26.20;12.17
15568;BME280;7885;42.596;23.044;2023-02-10T10:52:43;94395.19;;;26.23;11.83
15568;BME280;7885;42.596;23.044;2023-02-10T10:55:16;94403.53;;;26.72;11.77
15568;BME280;7885;42.596;23.044;2023-02-10T10:57:45;94403.47;;;26.85;12.11
15568;BME280;7885;42.596;23.044;2023-02-10T11:00:21;94396.03;;;27.18;11.21
15568;BME280;7885;42.596;23.044;2023-02-10T11:02:53;94396.34;;;27.38;10.90
15568;BME280;7885;42.596;23.044;2023-02-10T11:05:21;94319.25;;;26.06;11.22
15568;BME280;7885;42.596;23.044;2023-02-10T11:07:49;94378.19;;;26.48;11.53
15568;BME280;7885;42.596;23.044;2023-02-10T11:10:26;94373.94;;;25.95;11.94
15568;BME280;7885;42.596;23.044;2023-02-10T11:12:54;94337.78;;;26.22;11.39
15568;BME280;7885;42.596;23.044;2023-02-10T11:15:31;94385.56;;;26.24;11.32
15568;BME280;7885;42.596;23.044;2023-02-10T11:17:59;94378.81;;;26.43;11.75
15568;BME280;7885;42.596;23.044;2023-02-10T11:20:29;94359.28;;;26.52;11.82
15568;BME280;7885;42.596;23.044;2023-02-10T11:22:57;94376.81;;;26.62;11.79
15568;BME280;7885;42.596;23.044;2023-02-10T11:25:28;94374.88;;;25.48;11.70
15568;BME280;7885;42.596;23.044;2023-02-10T11:27:57;94368.06;;;24.72;12.02
15568;BME280;7885;42.596;23.044;2023-02-10T11:30:26;94368.75;;;24.00;12.60
15568;BME280;7885;42.596;23.044;2023-02-10T11:32:57;94349.50;;;23.55;12.66
15568;BME280;7885;42.596;23.044;2023-02-10T11:35:26;94366.44;;;22.74;13.17
15568;BME280;7885;42.596;23.044;2023-02-10T11:37:55;94352.22;;;21.55;14.28
15568;BME280;7885;42.596;23.044;2023-02-10T11:40:27;94346.38;;;21.14;14.41
15568;BME280;7885;42.596;23.044;2023-02-10T11:42:57;94331.09;;;19.74;15.10
15568;BME280;7885;42.596;23.044;2023-02-10T11:45:26;94359.88;;;18.85;16.61
15568;BME280;7885;42.596;23.044;2023-02-10T11:48:00;94359.63;;;18.28;16.56
15568;BME280;7885;42.596;23.044;2023-02-10T11:50:30;94353.50;;;17.62;17.22
15568;BME280;7885;42.596;23.044;2023-02-10T11:52:58;94337.66;;;17.11;18.27
15568;BME280;7885;42.596;23.044;2023-02-10T11:55:31;94345.50;;;17.16;18.96
15568;BME280;7885;42.596;23.044;2023-02-10T11:58:17;94346.34;;;17.02;19.05
15568;BME280;7885;42.596;23.044;2023-02-10T12:01:09;94341.66;;;16.99;18.16
15568;BME280;7885;42.596;23.044;2023-02-10T12:03:50;94335.31;;;17.13;18.37
15568;BME280;7885;42.596;23.044;2023-02-10T12:06:24;94352.44;;;17.38;18.72
15568;BME280;7885;42.596;23.044;2023-02-10T12:08:57;94333.63;;;17.30;17.62
15568;BME280;7885;42.596;23.044;2023-02-10T12:11:36;94336.72;;;17.35;17.70
15568;BME280;7885;42.596;23.044;2023-02-10T12:14:22;94328.50;;;17.28;17.70
15568;BME280;7885;42.596;23.044;2023-02-10T12:16:57;94314.81;;;17.17;18.26
15568;BME280;7885;42.596;23.044;2023-02-10T12:19:32;94311.97;;;17.35;16.73
15568;BME280;7885;42.596;23.044;2023-02-10T12:22:05;94316.31;;;17.33;17.72
15568;BME280;7885;42.596;23.044;2023-02-10T12:24:57;94312.94;;;17.66;18.08
15568;BME280;7885;42.596;23.044;2023-02-10T12:27:38;94315.25;;;17.75;18.23
15568;BME280;7885;42.596;23.044;2023-02-10T12:30:13;94299.03;;;17.84;17.53
15568;BME280;7885;42.596;23.044;2023-02-10T12:32:53;94294.09;;;17.64;17.85
15568;BME280;7885;42.596;23.044;2023-02-10T12:35:30;94297.16;;;17.74;16.98
15568;BME280;7885;42.596;23.044;2023-02-10T12:38:09;94307.03;;;17.67;17.98
15568;BME280;7885;42.596;23.044;2023-02-10T12:40:51;94302.41;;;17.57;17.33
15568;BME280;7885;42.596;23.044;2023-02-10T12:43:35;94287.50;;;17.48;18.64
15568;BME280;7885;42.596;23.044;2023-02-10T12:46:12;94274.44;;;17.62;17.73
15568;BME280;7885;42.596;23.044;2023-02-10T12:48:46;94290.59;;;17.53;18.10
15568;BME280;7885;42.596;23.044;2023-02-10T12:51:30;94295.22;;;17.71;18.06
15568;BME280;7885;42.596;23.044;2023-02-10T12:57:15;94286.34;;;17.45;18.54
15568;BME280;7885;42.596;23.044;2023-02-10T12:59:51;94292.56;;;17.56;18.21
15568;BME280;7885;42.596;23.044;2023-02-10T13:02:23;94292.91;;;17.62;18.03
15568;BME280;7885;42.596;23.044;2023-02-10T13:04:55;94286.19;;;17.66;18.02
15568;BME280;7885;42.596;23.044;2023-02-10T13:07:32;94294.03;;;17.72;17.93
15568;BME280;7885;42.596;23.044;2023-02-10T13:10:09;94299.59;;;17.64;18.16
15568;BME280;7885;42.596;23.044;2023-02-10T13:12:42;94291.50;;;17.40;18.87
15568;BME280;7885;42.596;23.044;2023-02-10T13:15:15;94299.88;;;17.22;18.64
15568;BME280;7885;42.596;23.044;2023-02-10T13:17:46;94300.72;;;17.12;19.04
15568;BME280;7885;42.596;23.044;2023-02-10T13:20:24;94308.22;;;17.04;19.10
15568;BME280;7885;42.596;23.044;2023-02-10T13:23:00;94260.13;;;16.50;19.00
15568;BME280;7885;42.596;23.044;2023-02-10T13:25:37;94244.53;;;16.30;19.41
15568;BME280;7885;42.596;23.044;2023-02-10T13:28:16;94293.97;;;16.26;19.23
15568;BME280;7885;42.596;23.044;2023-02-10T13:31:00;94295.59;;;16.02;19.87